sensor_id;sensor_type;location;lat;lon;timestamp;P1;durP1;ratioP1;P2;durP2;ratioP2
12631;SDS011;6381;45.748;12.106;2022-12-11T00:00:39;6.93;;;6.30;;
12631;SDS011;6381;45.748;12.106;2022-12-11T00:03:08;7.87;;;7.07;;
12631;SDS011;6381;45.748;12.106;2022-12-11T00:05:43;7.10;;;6.50;;
12631;SDS011;6381;45.748;12.106;2022-12-11T00:08:13;7.33;;;6.30;;
12631;SDS011;6381;45.748;12.106;2022-12-11T00:10:46;6.90;;;6.23;;
12631;SDS011;6381;45.748;12.106;2022-12-11T00:13:16;6.53;;;5.93;;
12631;SDS011;6381;45.748;12.106;2022-12-11T00:15:45;6.97;;;6.27;;
12631;SDS011;6381;45.748;12.106;2022-12-11T00:18:14;6.97;;;6.37;;
12631;SDS011;6381;45.748;12.106;2022-12-11T00:20:45;6.63;;;6.03;;
12631;SDS011;6381;45.748;12.106;2022-12-11T00:23:14;6.27;;;5.77;;
12631;SDS011;6381;45.748;12.106;2022-12-11T00:25:43;6.60;;;6.00;;
12631;SDS011;6381;45.748;12.106;2022-12-11T00:28:14;6.80;;;6.20;;
12631;SDS011;6381;45.748;12.106;2022-12-11T00:30:44;6.87;;;6.27;;
12631;SDS011;6381;45.748;12.106;2022-12-11T00:33:14;11.43;;;7.70;;
12631;SDS011;6381;45.748;12.106;2022-12-11T00:35:45;7.00;;;6.30;;
12631;SDS011;6381;45.748;12.106;2022-12-11T00:38:15;6.27;;;5.77;;
12631;SDS011;6381;45.748;12.106;2022-12-11T00:40:45;6.30;;;5.70;;
12631;SDS011;6381;45.748;12.106;2022-12-11T00:43:16;7.00;;;6.37;;
12631;SDS011;6381;45.748;12.106;2022-12-11T00:45:45;8.90;;;8.10;;
12631;SDS011;6381;45.748;12.106;2022-12-11T00:48:15;8.80;;;7.73;;
12631;SDS011;6381;45.748;12.106;2022-12-11T00:50:45;8.00;;;7.30;;
12631;SDS011;6381;45.748;12.106;2022-12-11T00:53:14;8.17;;;7.40;;
12631;SDS011;6381;45.748;12.106;2022-12-11T00:55:43;9.27;;;7.30;;
12631;SDS011;6381;45.748;12.106;2022-12-11T00:58:13;8.37;;;6.80;;
12631;SDS011;6381;45.748;12.106;2022-12-11T01:00:42;8.67;;;7.87;;
12631;SDS011;6381;45.748;12.106;2022-12-11T01:03:14;8.67;;;7.87;;
12631;SDS011;6381;45.748;12.106;2022-12-11T01:05:52;9.30;;;8.40;;
12631;SDS011;6381;45.748;12.106;2022-12-11T01:08:22;9.00;;;8.10;;
12631;SDS011;6381;45.748;12.106;2022-12-11T01:10:51;8.90;;;8.10;;
12631;SDS011;6381;45.748;12.106;2022-12-11T01:13:28;8.83;;;8.03;;
12631;SDS011;6381;45.748;12.106;2022-12-11T01:15:57;8.53;;;7.73;;
12631;SDS011;6381;45.748;12.106;2022-12-11T01:18:26;8.83;;;8.07;;
12631;SDS011;6381;45.748;12.106;2022-12-11T01:20:57;8.57;;;7.77;;
12631;SDS011;6381;45.748;12.106;2022-12-11T01:23:26;8.47;;;7.60;;
12631;SDS011;6381;45.748;12.106;2022-12-11T01:25:55;7.90;;;7.10;;
12631;SDS011;6381;45.748;12.106;2022-12-11T01:28:24;7.87;;;7.13;;
12631;SDS011;6381;45.748;12.106;2022-12-11T01:30:53;7.13;;;6.43;;
12631;SDS011;6381;45.748;12.106;2022-12-11T01:33:22;6.80;;;6.20;;
12631;SDS011;6381;45.748;12.106;2022-12-11T01:35:51;6.40;;;5.80;;
12631;SDS011;6381;45.748;12.106;2022-12-11T01:38:22;6.67;;;6.07;;
12631;SDS011;6381;45.748;12.106;2022-12-11T01:40:51;7.93;;;7.13;;
12631;SDS011;6381;45.748;12.106;2022-12-11T01:43:20;7.37;;;6.67;;
12631;SDS011;6381;45.748;12.106;2022-12-11T01:45:49;8.50;;;7.70;;
12631;SDS011;6381;45.748;12.106;2022-12-11T01:48:19;8.50;;;7.60;;
12631;SDS011;6381;45.748;12.106;2022-12-11T01:50:51;8.57;;;7.77;;
12631;SDS011;6381;45.748;12.106;2022-12-11T01:53:25;7.73;;;6.93;;
12631;SDS011;6381;45.748;12.106;2022-12-11T01:55:57;8.47;;;6.87;;
12631;SDS011;6381;45.748;12.106;2022-12-11T01:58:28;7.73;;;7.03;;
12631;SDS011;6381;45.748;12.106;2022-12-11T02:01:01;8.00;;;7.13;;
12631;SDS011;6381;45.748;12.106;2022-12-11T02:03:30;7.43;;;6.73;;
12631;SDS011;6381;45.748;12.106;2022-12-11T02:05:59;7.20;;;6.60;;
12631;SDS011;6381;45.748;12.106;2022-12-11T02:08:31;8.47;;;7.57;;
12631;SDS011;6381;45.748;12.106;2022-12-11T02:11:02;7.53;;;6.83;;
12631;SDS011;6381;45.748;12.106;2022-12-11T02:13:42;7.47;;;6.77;;
12631;SDS011;6381;45.748;12.106;2022-12-11T02:16:18;8.57;;;7.77;;
12631;SDS011;6381;45.748;12.106;2022-12-11T02:18:54;11.37;;;7.93;;
12631;SDS011;6381;45.748;12.106;2022-12-11T02:21:31;8.37;;;7.57;;
12631;SDS011;6381;45.748;12.106;2022-12-11T02:24:10;7.53;;;6.83;;
12631;SDS011;6381;45.748;12.106;2022-12-11T02:27:19;7.50;;;6.80;;
12631;SDS011;6381;45.748;12.106;2022-12-11T02:29:59;7.70;;;7.00;;
12631;SDS011;6381;45.748;12.106;2022-12-11T02:32:32;7.70;;;6.90;;
12631;SDS011;6381;45.748;12.106;2022-12-11T02:35:07;7.17;;;6.57;;
12631;SDS011;6381;45.748;12.106;2022-12-11T02:37:40;8.00;;;7.33;;
12631;SDS011;6381;45.748;12.106;2022-12-11T02:40:12;7.40;;;6.80;;
12631;SDS011;6381;45.748;12.106;2022-12-11T02:42:44;7.13;;;6.53;;
12631;SDS011;6381;45.748;12.106;2022-12-11T02:45:16;7.33;;;6.73;;
12631;SDS011;6381;45.748;12.106;2022-12-11T02:47:47;7.10;;;6.40;;
12631;SDS011;6381;45.748;12.106;2022-12-11T02:50:18;7.00;;;6.40;;
12631;SDS011;6381;45.748;12.106;2022-12-11T02:52:50;6.73;;;6.20;;
12631;SDS011;6381;45.748;12.106;2022-12-11T02:55:23;6.17;;;5.67;;
12631;SDS011;6381;45.748;12.106;2022-12-11T02:57:55;6.37;;;5.87;;
12631;SDS011;6381;45.748;12.106;2022-12-11T03:00:32;6.33;;;5.53;;
12631;SDS011;6381;45.748;12.106;2022-12-11T03:03:02;5.73;;;4.87;;
12631;SDS011;6381;45.748;12.106;2022-12-11T03:05:31;5.73;;;5.30;;
12631;SDS011;6381;45.748;12.106;2022-12-11T03:08:00;5.50;;;5.00;;
12631;SDS011;6381;45.748;12.106;2022-12-11T03:10:30;4.63;;;4.23;;
12631;SDS011;6381;45.748;12.106;2022-12-11T03:12:59;4.93;;;4.43;;
12631;SDS011;6381;45.748;12.106;2022-12-11T03:15:30;4.87;;;4.47;;
12631;SDS011;6381;45.748;12.106;2022-12-11T03:18:08;4.50;;;4.10;;
12631;SDS011;6381;45.748;12.106;2022-12-11T03:20:45;3.47;;;3.17;;
12631;SDS011;6381;45.748;12.106;2022-12-11T03:23:22;2.97;;;2.70;;
12631;SDS011;6381;45.748;12.106;2022-12-11T03:25:58;2.83;;;2.63;;
12631;SDS011;6381;45.748;12.106;2022-12-11T03:28:31;2.60;;;2.40;;
12631;SDS011;6381;45.748;12.106;2022-12-11T03:31:08;2.37;;;2.17;;
12631;SDS011;6381;45.748;12.106;2022-12-11T03:33:40;2.70;;;2.50;;
12631;SDS011;6381;45.748;12.106;2022-12-11T03:36:15;2.90;;;2.60;;
12631;SDS011;6381;45.748;12.106;2022-12-11T03:38:47;4.60;;;2.67;;
12631;SDS011;6381;45.748;12.106;2022-12-11T03:41:19;3.10;;;2.90;;
12631;SDS011;6381;45.748;12.106;2022-12-11T03:43:51;3.80;;;3.50;;
12631;SDS011;6381;45.748;12.106;2022-12-11T03:46:26;3.17;;;2.97;;
12631;SDS011;6381;45.748;12.106;2022-12-11T03:48:59;3.80;;;3.50;;
12631;SDS011;6381;45.748;12.106;2022-12-11T03:51:31;3.53;;;3.23;;
12631;SDS011;6381;45.748;12.106;2022-12-11T03:54:03;4.20;;;3.80;;
12631;SDS011;6381;45.748;12.106;2022-12-11T03:56:33;3.90;;;3.60;;
12631;SDS011;6381;45.748;12.106;2022-12-11T03:59:04;4.37;;;3.97;;
12631;SDS011;6381;45.748;12.106;2022-12-11T04:01:34;3.97;;;3.60;;
12631;SDS011;6381;45.748;12.106;2022-12-11T04:04:04;4.33;;;3.90;;
12631;SDS011;6381;45.748;12.106;2022-12-11T04:06:33;4.70;;;4.30;;
12631;SDS011;6381;45.748;12.106;2022-12-11T04:09:02;4.43;;;4.03;;
12631;SDS011;6381;45.748;12.106;2022-12-11T04:11:31;6.13;;;4.37;;
12631;SDS011;6381;45.748;12.106;2022-12-11T04:14:04;5.17;;;3.57;;
12631;SDS011;6381;45.748;12.106;2022-12-11T04:16:54;4.50;;;4.10;;
12631;SDS011;6381;45.748;12.106;2022-12-11T04:19:24;4.33;;;3.93;;
12631;SDS011;6381;45.748;12.106;2022-12-11T04:22:11;3.87;;;3.57;;
12631;SDS011;6381;45.748;12.106;2022-12-11T04:24:58;3.83;;;3.53;;
12631;SDS011;6381;45.748;12.106;2022-12-11T04:27:28;3.50;;;3.30;;
12631;SDS011;6381;45.748;12.106;2022-12-11T04:30:15;4.37;;;3.97;;
12631;SDS011;6381;45.748;12.106;2022-12-11T04:32:48;3.10;;;2.87;;
12631;SDS011;6381;45.748;12.106;2022-12-11T04:35:17;3.07;;;2.77;;
12631;SDS011;6381;45.748;12.106;2022-12-11T04:37:47;2.63;;;2.43;;
12631;SDS011;6381;45.748;12.106;2022-12-11T04:40:17;2.50;;;2.30;;
12631;SDS011;6381;45.748;12.106;2022-12-11T04:42:47;2.13;;;1.93;;
12631;SDS011;6381;45.748;12.106;2022-12-11T04:45:16;2.00;;;1.90;;
12631;SDS011;6381;45.748;12.106;2022-12-11T04:47:45;2.00;;;1.80;;
12631;SDS011;6381;45.748;12.106;2022-12-11T04:50:17;1.70;;;1.60;;
12631;SDS011;6381;45.748;12.106;2022-12-11T04:52:46;1.90;;;1.70;;
12631;SDS011;6381;45.748;12.106;2022-12-11T04:55:15;2.60;;;1.80;;
12631;SDS011;6381;45.748;12.106;2022-12-11T04:57:44;1.60;;;1.50;;
12631;SDS011;6381;45.748;12.106;2022-12-11T05:00:14;2.60;;;1.70;;
12631;SDS011;6381;45.748;12.106;2022-12-11T05:02:43;2.37;;;1.77;;
12631;SDS011;6381;45.748;12.106;2022-12-11T05:05:14;5.20;;;4.80;;
12631;SDS011;6381;45.748;12.106;2022-12-11T05:07:43;4.37;;;4.07;;
12631;SDS011;6381;45.748;12.106;2022-12-11T05:10:12;2.80;;;2.50;;
12631;SDS011;6381;45.748;12.106;2022-12-11T05:12:41;2.20;;;2.00;;
12631;SDS011;6381;45.748;12.106;2022-12-11T05:15:10;1.77;;;1.67;;
12631;SDS011;6381;45.748;12.106;2022-12-11T05:17:39;2.47;;;2.20;;
12631;SDS011;6381;45.748;12.106;2022-12-11T05:20:09;2.40;;;2.20;;
12631;SDS011;6381;45.748;12.106;2022-12-11T05:22:40;2.13;;;2.00;;
12631;SDS011;6381;45.748;12.106;2022-12-11T05:25:09;2.50;;;2.30;;
12631;SDS011;6381;45.748;12.106;2022-12-11T05:27:39;2.90;;;2.63;;
12631;SDS011;6381;45.748;12.106;2022-12-11T05:30:08;3.40;;;3.10;;
12631;SDS011;6381;45.748;12.106;2022-12-11T05:32:38;3.70;;;3.20;;
12631;SDS011;6381;45.748;12.106;2022-12-11T05:35:07;2.83;;;2.57;;
12631;SDS011;6381;45.748;12.106;2022-12-11T05:37:37;3.00;;;2.70;;
12631;SDS011;6381;45.748;12.106;2022-12-11T05:40:08;2.90;;;2.70;;
12631;SDS011;6381;45.748;12.106;2022-12-11T05:42:38;2.50;;;2.30;;
12631;SDS011;6381;45.748;12.106;2022-12-11T05:45:08;2.40;;;2.20;;
12631;SDS011;6381;45.748;12.106;2022-12-11T05:47:38;3.50;;;2.20;;
12631;SDS011;6381;45.748;12.106;2022-12-11T05:50:07;1.80;;;1.70;;
12631;SDS011;6381;45.748;12.106;2022-12-11T05:52:36;1.90;;;1.70;;
12631;SDS011;6381;45.748;12.106;2022-12-11T05:55:07;1.87;;;1.77;;
12631;SDS011;6381;45.748;12.106;2022-12-11T05:57:37;1.73;;;1.63;;
12631;SDS011;6381;45.748;12.106;2022-12-11T06:00:07;1.57;;;1.47;;
12631;SDS011;6381;45.748;12.106;2022-12-11T06:02:37;1.50;;;1.40;;
12631;SDS011;6381;45.748;12.106;2022-12-11T06:05:06;1.40;;;1.30;;
12631;SDS011;6381;45.748;12.106;2022-12-11T06:07:36;1.60;;;1.50;;
12631;SDS011;6381;45.748;12.106;2022-12-11T06:10:05;1.47;;;1.30;;
12631;SDS011;6381;45.748;12.106;2022-12-11T06:12:37;1.93;;;1.40;;
12631;SDS011;6381;45.748;12.106;2022-12-11T06:15:07;1.43;;;1.33;;
12631;SDS011;6381;45.748;12.106;2022-12-11T06:17:37;1.60;;;1.40;;
12631;SDS011;6381;45.748;12.106;2022-12-11T06:20:06;1.50;;;1.40;;
12631;SDS011;6381;45.748;12.106;2022-12-11T06:22:36;1.50;;;1.40;;
12631;SDS011;6381;45.748;12.106;2022-12-11T06:25:05;1.63;;;1.53;;
12631;SDS011;6381;45.748;12.106;2022-12-11T06:27:37;1.70;;;1.60;;
12631;SDS011;6381;45.748;12.106;2022-12-11T06:30:07;1.80;;;1.70;;
12631;SDS011;6381;45.748;12.106;2022-12-11T06:32:37;1.70;;;1.60;;
12631;SDS011;6381;45.748;12.106;2022-12-11T06:35:06;1.70;;;1.60;;
12631;SDS011;6381;45.748;12.106;2022-12-11T06:37:36;1.70;;;1.60;;
12631;SDS011;6381;45.748;12.106;2022-12-11T06:40:07;1.70;;;1.60;;
12631;SDS011;6381;45.748;12.106;2022-12-11T06:42:39;42.63;;;30.87;;
12631;SDS011;6381;45.748;12.106;2022-12-11T06:45:08;46.63;;;34.37;;
12631;SDS011;6381;45.748;12.106;2022-12-11T06:47:38;6.50;;;5.90;;
12631;SDS011;6381;45.748;12.106;2022-12-11T06:50:08;3.00;;;2.80;;
12631;SDS011;6381;45.748;12.106;2022-12-11T06:52:37;2.80;;;2.60;;
12631;SDS011;6381;45.748;12.106;2022-12-11T06:55:06;2.10;;;2.00;;
12631;SDS011;6381;45.748;12.106;2022-12-11T06:57:36;2.83;;;2.63;;
12631;SDS011;6381;45.748;12.106;2022-12-11T07:00:08;2.40;;;2.20;;
12631;SDS011;6381;45.748;12.106;2022-12-11T07:02:38;1.73;;;1.63;;
12631;SDS011;6381;45.748;12.106;2022-12-11T07:05:08;2.10;;;1.90;;
12631;SDS011;6381;45.748;12.106;2022-12-11T07:07:37;1.70;;;1.60;;
12631;SDS011;6381;45.748;12.106;2022-12-11T07:10:07;1.70;;;1.60;;
12631;SDS011;6381;45.748;12.106;2022-12-11T07:12:36;1.80;;;1.70;;
12631;SDS011;6381;45.748;12.106;2022-12-11T07:15:07;2.60;;;2.40;;
12631;SDS011;6381;45.748;12.106;2022-12-11T07:17:37;2.13;;;2.00;;
12631;SDS011;6381;45.748;12.106;2022-12-11T07:20:07;1.97;;;1.87;;
12631;SDS011;6381;45.748;12.106;2022-12-11T07:22:37;2.00;;;1.90;;
12631;SDS011;6381;45.748;12.106;2022-12-11T07:25:12;2.00;;;1.90;;
12631;SDS011;6381;45.748;12.106;2022-12-11T07:27:50;2.40;;;2.20;;
12631;SDS011;6381;45.748;12.106;2022-12-11T07:30:25;2.50;;;2.30;;
12631;SDS011;6381;45.748;12.106;2022-12-11T07:32:54;2.20;;;2.00;;
12631;SDS011;6381;45.748;12.106;2022-12-11T07:35:23;2.27;;;2.07;;
12631;SDS011;6381;45.748;12.106;2022-12-11T07:37:52;2.40;;;2.20;;
12631;SDS011;6381;45.748;12.106;2022-12-11T07:40:21;2.80;;;2.60;;
12631;SDS011;6381;45.748;12.106;2022-12-11T07:42:52;2.70;;;2.50;;
12631;SDS011;6381;45.748;12.106;2022-12-11T07:45:21;2.00;;;1.90;;
12631;SDS011;6381;45.748;12.106;2022-12-11T07:47:52;2.00;;;1.90;;
12631;SDS011;6381;45.748;12.106;2022-12-11T07:50:21;3.03;;;2.83;;
12631;SDS011;6381;45.748;12.106;2022-12-11T07:52:51;2.70;;;2.50;;
12631;SDS011;6381;45.748;12.106;2022-12-11T07:55:24;2.40;;;2.20;;
12631;SDS011;6381;45.748;12.106;2022-12-11T07:57:58;4.90;;;2.30;;
12631;SDS011;6381;45.748;12.106;2022-12-11T08:00:29;2.00;;;1.90;;
12631;SDS011;6381;45.748;12.106;2022-12-11T08:03:00;2.00;;;1.90;;
12631;SDS011;6381;45.748;12.106;2022-12-11T08:05:32;2.00;;;1.80;;
12631;SDS011;6381;45.748;12.106;2022-12-11T08:08:03;2.60;;;2.40;;
12631;SDS011;6381;45.748;12.106;2022-12-11T08:10:35;2.97;;;2.70;;
12631;SDS011;6381;45.748;12.106;2022-12-11T08:13:08;3.60;;;2.73;;
12631;SDS011;6381;45.748;12.106;2022-12-11T08:15:39;2.67;;;2.43;;
12631;SDS011;6381;45.748;12.106;2022-12-11T08:18:10;2.40;;;2.20;;
12631;SDS011;6381;45.748;12.106;2022-12-11T08:20:43;2.53;;;2.33;;
12631;SDS011;6381;45.748;12.106;2022-12-11T08:23:14;4.27;;;2.20;;
12631;SDS011;6381;45.748;12.106;2022-12-11T08:25:43;2.00;;;1.90;;
12631;SDS011;6381;45.748;12.106;2022-12-11T08:28:14;2.07;;;1.97;;
12631;SDS011;6381;45.748;12.106;2022-12-11T08:30:43;2.17;;;2.07;;
12631;SDS011;6381;45.748;12.106;2022-12-11T08:33:12;2.60;;;2.40;;
12631;SDS011;6381;45.748;12.106;2022-12-11T08:35:41;3.53;;;2.80;;
12631;SDS011;6381;45.748;12.106;2022-12-11T08:38:12;3.87;;;3.47;;
12631;SDS011;6381;45.748;12.106;2022-12-11T08:40:46;4.93;;;4.03;;
12631;SDS011;6381;45.748;12.106;2022-12-11T08:43:17;7.47;;;6.03;;
12631;SDS011;6381;45.748;12.106;2022-12-11T08:45:46;10.23;;;7.20;;
12631;SDS011;6381;45.748;12.106;2022-12-11T08:48:15;8.43;;;6.50;;
12631;SDS011;6381;45.748;12.106;2022-12-11T08:50:44;4.97;;;4.30;;
12631;SDS011;6381;45.748;12.106;2022-12-11T08:53:13;6.40;;;4.77;;
12631;SDS011;6381;45.748;12.106;2022-12-11T08:55:42;9.33;;;7.60;;
12631;SDS011;6381;45.748;12.106;2022-12-11T08:58:11;5.30;;;4.67;;
12631;SDS011;6381;45.748;12.106;2022-12-11T09:00:42;7.97;;;6.83;;
12631;SDS011;6381;45.748;12.106;2022-12-11T09:03:11;8.20;;;5.40;;
12631;SDS011;6381;45.748;12.106;2022-12-11T09:05:40;4.57;;;4.17;;
12631;SDS011;6381;45.748;12.106;2022-12-11T09:08:09;4.93;;;4.40;;
12631;SDS011;6381;45.748;12.106;2022-12-11T09:10:39;4.87;;;4.37;;
12631;SDS011;6381;45.748;12.106;2022-12-11T09:13:08;4.20;;;3.80;;
12631;SDS011;6381;45.748;12.106;2022-12-11T09:15:38;3.40;;;3.10;;
12631;SDS011;6381;45.748;12.106;2022-12-11T09:18:09;3.67;;;3.30;;
12631;SDS011;6381;45.748;12.106;2022-12-11T09:20:39;4.30;;;4.00;;
12631;SDS011;6381;45.748;12.106;2022-12-11T09:23:12;3.20;;;3.00;;
12631;SDS011;6381;45.748;12.106;2022-12-11T09:25:43;3.07;;;2.87;;
12631;SDS011;6381;45.748;12.106;2022-12-11T09:28:16;5.37;;;4.97;;
12631;SDS011;6381;45.748;12.106;2022-12-11T09:30:46;2.80;;;2.60;;
12631;SDS011;6381;45.748;12.106;2022-12-11T09:33:18;2.83;;;2.63;;
12631;SDS011;6381;45.748;12.106;2022-12-11T09:35:56;4.00;;;2.90;;
12631;SDS011;6381;45.748;12.106;2022-12-11T09:38:28;3.03;;;2.60;;
12631;SDS011;6381;45.748;12.106;2022-12-11T09:40:57;2.93;;;2.73;;
12631;SDS011;6381;45.748;12.106;2022-12-11T09:43:30;2.90;;;2.70;;
12631;SDS011;6381;45.748;12.106;2022-12-11T09:46:05;3.90;;;3.60;;
12631;SDS011;6381;45.748;12.106;2022-12-11T09:48:40;3.10;;;2.50;;
12631;SDS011;6381;45.748;12.106;2022-12-11T09:51:13;4.47;;;2.80;;
12631;SDS011;6381;45.748;12.106;2022-12-11T09:53:49;3.77;;;3.40;;
12631;SDS011;6381;45.748;12.106;2022-12-11T09:56:20;3.43;;;3.13;;
12631;SDS011;6381;45.748;12.106;2022-12-11T09:58:56;2.90;;;2.70;;
12631;SDS011;6381;45.748;12.106;2022-12-11T10:01:33;3.20;;;2.97;;
12631;SDS011;6381;45.748;12.106;2022-12-11T10:07:07;3.00;;;2.80;;
12631;SDS011;6381;45.748;12.106;2022-12-11T10:09:47;3.50;;;3.20;;
12631;SDS011;6381;45.748;12.106;2022-12-11T10:12:24;3.47;;;3.20;;
12631;SDS011;6381;45.748;12.106;2022-12-11T10:15:10;3.77;;;3.47;;
12631;SDS011;6381;45.748;12.106;2022-12-11T10:17:56;4.70;;;4.30;;
12631;SDS011;6381;45.748;12.106;2022-12-11T10:20:33;4.00;;;3.60;;
12631;SDS011;6381;45.748;12.106;2022-12-11T10:23:05;3.30;;;3.00;;
12631;SDS011;6381;45.748;12.106;2022-12-11T10:25:37;3.53;;;3.23;;
12631;SDS011;6381;45.748;12.106;2022-12-11T10:28:09;3.27;;;2.70;;
12631;SDS011;6381;45.748;12.106;2022-12-11T10:30:42;2.90;;;2.70;;
12631;SDS011;6381;45.748;12.106;2022-12-11T10:33:17;3.00;;;2.80;;
12631;SDS011;6381;45.748;12.106;2022-12-11T10:35:51;2.70;;;2.50;;
12631;SDS011;6381;45.748;12.106;2022-12-11T10:38:23;3.13;;;2.60;;
12631;SDS011;6381;45.748;12.106;2022-12-11T10:40:56;3.50;;;3.10;;
12631;SDS011;6381;45.748;12.106;2022-12-11T10:43:32;2.80;;;2.60;;
12631;SDS011;6381;45.748;12.106;2022-12-11T10:46:02;2.80;;;2.60;;
12631;SDS011;6381;45.748;12.106;2022-12-11T10:48:32;3.00;;;2.70;;
12631;SDS011;6381;45.748;12.106;2022-12-11T10:51:08;2.90;;;2.70;;
12631;SDS011;6381;45.748;12.106;2022-12-11T10:53:37;2.90;;;2.70;;
12631;SDS011;6381;45.748;12.106;2022-12-11T10:56:09;2.63;;;2.43;;
12631;SDS011;6381;45.748;12.106;2022-12-11T10:58:45;2.87;;;2.60;;
12631;SDS011;6381;45.748;12.106;2022-12-11T11:01:18;3.03;;;2.80;;
12631;SDS011;6381;45.748;12.106;2022-12-11T11:03:53;2.80;;;2.60;;
12631;SDS011;6381;45.748;12.106;2022-12-11T11:06:26;2.90;;;2.70;;
12631;SDS011;6381;45.748;12.106;2022-12-11T11:08:56;3.13;;;2.83;;
12631;SDS011;6381;45.748;12.106;2022-12-11T11:11:27;2.90;;;2.70;;
12631;SDS011;6381;45.748;12.106;2022-12-11T11:14:03;3.23;;;2.90;;
12631;SDS011;6381;45.748;12.106;2022-12-11T11:16:35;2.70;;;2.50;;
12631;SDS011;6381;45.748;12.106;2022-12-11T11:19:06;3.20;;;2.90;;
12631;SDS011;6381;45.748;12.106;2022-12-11T11:21:47;3.30;;;3.00;;
12631;SDS011;6381;45.748;12.106;2022-12-11T11:24:28;4.20;;;3.80;;
12631;SDS011;6381;45.748;12.106;2022-12-11T11:27:02;3.43;;;3.13;;
12631;SDS011;6381;45.748;12.106;2022-12-11T11:29:39;3.40;;;3.10;;
12631;SDS011;6381;45.748;12.106;2022-12-11T11:32:17;3.17;;;2.87;;
12631;SDS011;6381;45.748;12.106;2022-12-11T11:34:49;2.90;;;2.70;;
12631;SDS011;6381;45.748;12.106;2022-12-11T11:37:25;3.93;;;3.13;;
12631;SDS011;6381;45.748;12.106;2022-12-11T11:40:00;3.77;;;3.10;;
12631;SDS011;6381;45.748;12.106;2022-12-11T11:42:37;3.67;;;3.37;;
12631;SDS011;6381;45.748;12.106;2022-12-11T11:45:13;3.50;;;3.20;;
12631;SDS011;6381;45.748;12.106;2022-12-11T11:47:50;3.50;;;3.20;;
12631;SDS011;6381;45.748;12.106;2022-12-11T11:50:26;3.57;;;3.27;;
12631;SDS011;6381;45.748;12.106;2022-12-11T11:53:02;3.80;;;3.50;;
12631;SDS011;6381;45.748;12.106;2022-12-11T11:55:39;4.57;;;4.17;;
12631;SDS011;6381;45.748;12.106;2022-12-11T11:58:15;4.87;;;4.40;;
12631;SDS011;6381;45.748;12.106;2022-12-11T12:00:48;4.20;;;3.87;;
12631;SDS011;6381;45.748;12.106;2022-12-11T12:03:21;3.70;;;3.40;;
12631;SDS011;6381;45.748;12.106;2022-12-11T12:05:52;4.23;;;3.40;;
12631;SDS011;6381;45.748;12.106;2022-12-11T12:08:31;3.90;;;3.60;;
12631;SDS011;6381;45.748;12.106;2022-12-11T12:11:08;4.00;;;3.70;;
12631;SDS011;6381;45.748;12.106;2022-12-11T12:13:46;4.10;;;3.70;;
12631;SDS011;6381;45.748;12.106;2022-12-11T12:16:24;3.80;;;3.50;;
12631;SDS011;6381;45.748;12.106;2022-12-11T12:19:25;4.07;;;3.67;;
12631;SDS011;6381;45.748;12.106;2022-12-11T12:22:11;3.70;;;3.40;;
12631;SDS011;6381;45.748;12.106;2022-12-11T12:25:09;4.00;;;3.70;;
12631;SDS011;6381;45.748;12.106;2022-12-11T12:27:54;4.07;;;3.77;;
12631;SDS011;6381;45.748;12.106;2022-12-11T12:30:35;3.90;;;3.60;;
12631;SDS011;6381;45.748;12.106;2022-12-11T12:33:20;3.90;;;3.60;;
12631;SDS011;6381;45.748;12.106;2022-12-11T12:35:58;4.20;;;3.67;;
12631;SDS011;6381;45.748;12.106;2022-12-11T12:38:36;4.10;;;3.80;;
12631;SDS011;6381;45.748;12.106;2022-12-11T12:41:13;3.70;;;3.40;;
12631;SDS011;6381;45.748;12.106;2022-12-11T12:43:49;4.13;;;3.83;;
12631;SDS011;6381;45.748;12.106;2022-12-11T12:46:30;4.13;;;3.83;;
12631;SDS011;6381;45.748;12.106;2022-12-11T12:49:07;4.23;;;3.93;;
12631;SDS011;6381;45.748;12.106;2022-12-11T12:51:41;3.80;;;3.50;;
12631;SDS011;6381;45.748;12.106;2022-12-11T12:54:11;3.60;;;3.30;;
12631;SDS011;6381;45.748;12.106;2022-12-11T12:56:46;4.27;;;3.97;;
12631;SDS011;6381;45.748;12.106;2022-12-11T12:59:20;6.03;;;5.43;;
12631;SDS011;6381;45.748;12.106;2022-12-11T13:01:52;5.43;;;4.93;;
12631;SDS011;6381;45.748;12.106;2022-12-11T13:04:33;4.00;;;3.70;;
12631;SDS011;6381;45.748;12.106;2022-12-11T13:07:26;3.90;;;3.60;;
12631;SDS011;6381;45.748;12.106;2022-12-11T13:09:58;4.10;;;3.80;;
12631;SDS011;6381;45.748;12.106;2022-12-11T13:12:40;4.10;;;3.80;;
12631;SDS011;6381;45.748;12.106;2022-12-11T13:15:22;3.40;;;3.10;;
12631;SDS011;6381;45.748;12.106;2022-12-11T13:18:00;4.07;;;3.77;;
12631;SDS011;6381;45.748;12.106;2022-12-11T13:20:33;4.60;;;4.20;;
12631;SDS011;6381;45.748;12.106;2022-12-11T13:23:19;4.10;;;3.80;;
12631;SDS011;6381;45.748;12.106;2022-12-11T13:25:55;4.43;;;4.03;;
12631;SDS011;6381;45.748;12.106;2022-12-11T13:28:33;4.50;;;4.10;;
12631;SDS011;6381;45.748;12.106;2022-12-11T13:31:26;5.30;;;4.90;;
12631;SDS011;6381;45.748;12.106;2022-12-11T13:34:12;4.90;;;4.50;;
12631;SDS011;6381;45.748;12.106;2022-12-11T13:36:47;4.50;;;4.20;;
12631;SDS011;6381;45.748;12.106;2022-12-11T13:39:21;4.77;;;4.37;;
12631;SDS011;6381;45.748;12.106;2022-12-11T13:41:56;4.93;;;4.53;;
12631;SDS011;6381;45.748;12.106;2022-12-11T13:44:33;6.77;;;6.17;;
12631;SDS011;6381;45.748;12.106;2022-12-11T13:47:09;11.47;;;9.40;;
12631;SDS011;6381;45.748;12.106;2022-12-11T13:49:44;8.63;;;7.83;;
12631;SDS011;6381;45.748;12.106;2022-12-11T13:52:17;11.70;;;10.53;;
12631;SDS011;6381;45.748;12.106;2022-12-11T13:54:50;10.13;;;9.13;;
12631;SDS011;6381;45.748;12.106;2022-12-11T13:57:23;11.83;;;9.33;;
12631;SDS011;6381;45.748;12.106;2022-12-11T13:59:56;13.30;;;11.57;;
12631;SDS011;6381;45.748;12.106;2022-12-11T14:02:30;12.50;;;11.20;;
12631;SDS011;6381;45.748;12.106;2022-12-11T14:05:05;12.33;;;11.23;;
12631;SDS011;6381;45.748;12.106;2022-12-11T14:07:42;11.77;;;10.67;;
12631;SDS011;6381;45.748;12.106;2022-12-11T14:10:18;10.20;;;9.20;;
12631;SDS011;6381;45.748;12.106;2022-12-11T14:12:51;18.03;;;14.07;;
12631;SDS011;6381;45.748;12.106;2022-12-11T14:15:27;11.50;;;9.90;;
12631;SDS011;6381;45.748;12.106;2022-12-11T14:18:00;10.00;;;7.80;;
12631;SDS011;6381;45.748;12.106;2022-12-11T14:20:32;10.30;;;8.70;;
12631;SDS011;6381;45.748;12.106;2022-12-11T14:23:15;9.97;;;7.47;;
12631;SDS011;6381;45.748;12.106;2022-12-11T14:25:53;10.83;;;8.50;;
12631;SDS011;6381;45.748;12.106;2022-12-11T14:28:26;8.50;;;7.43;;
12631;SDS011;6381;45.748;12.106;2022-12-11T14:31:12;10.17;;;8.30;;
12631;SDS011;6381;45.748;12.106;2022-12-11T14:33:52;7.97;;;6.87;;
12631;SDS011;6381;45.748;12.106;2022-12-11T14:36:29;7.80;;;6.80;;
12631;SDS011;6381;45.748;12.106;2022-12-11T14:39:05;6.50;;;5.90;;
12631;SDS011;6381;45.748;12.106;2022-12-11T14:41:47;6.23;;;5.63;;
12631;SDS011;6381;45.748;12.106;2022-12-11T14:44:28;6.43;;;5.93;;
12631;SDS011;6381;45.748;12.106;2022-12-11T14:47:06;7.27;;;6.57;;
12631;SDS011;6381;45.748;12.106;2022-12-11T14:49:44;12.53;;;11.33;;
12631;SDS011;6381;45.748;12.106;2022-12-11T14:52:20;9.30;;;8.40;;
12631;SDS011;6381;45.748;12.106;2022-12-11T14:54:58;13.27;;;11.87;;
12631;SDS011;6381;45.748;12.106;2022-12-11T14:57:34;11.33;;;10.23;;
12631;SDS011;6381;45.748;12.106;2022-12-11T15:00:22;9.63;;;8.67;;
12631;SDS011;6381;45.748;12.106;2022-12-11T15:02:59;8.03;;;7.23;;
12631;SDS011;6381;45.748;12.106;2022-12-11T15:05:32;8.23;;;7.53;;
12631;SDS011;6381;45.748;12.106;2022-12-11T15:08:16;9.87;;;8.57;;
12631;SDS011;6381;45.748;12.106;2022-12-11T15:10:58;10.27;;;9.27;;
12631;SDS011;6381;45.748;12.106;2022-12-11T15:13:34;10.57;;;9.47;;
12631;SDS011;6381;45.748;12.106;2022-12-11T15:16:07;10.97;;;9.30;;
12631;SDS011;6381;45.748;12.106;2022-12-11T15:18:39;8.53;;;7.73;;
12631;SDS011;6381;45.748;12.106;2022-12-11T15:21:10;12.53;;;11.33;;
12631;SDS011;6381;45.748;12.106;2022-12-11T15:23:48;16.90;;;13.53;;